Time;durP1;ratioP1;P1;durP2;ratioP2;P2;SDS_P1;SDS_P2;PMS_P1;PMS_P2;Temp;Humidity;BMP_temperature;BMP_pressure;BME280_temperature;BME280_humidity;BME280_pressure;Samples;Min_cycle;Max_cycle;Signal;HPM_P1;HPM_P2
2021/09/29 00:01:02;;;;;;;18.10;10.80;;;17.00;1.00;;;;;;5112788;28;20476;-53
2021/09/29 00:03:28;;;;;;;15.60;10.20;;;17.00;1.00;;;;;;5114623;28;20286;-53
2021/09/29 00:05:53;;;;;;;17.30;10.60;;;17.00;1.00;;;;;;5107690;28;20192;-53
2021/09/29 00:08:19;;;;;;;13.70;9.90;;;16.90;1.00;;;;;;5114268;28;20207;-53
2021/09/29 00:10:44;;;;;;;13.80;10.60;;;16.90;1.00;;;;;;5110909;28;20189;-53
2021/09/29 00:13:10;;;;;;;14.60;11.00;;;16.90;1.00;;;;;;5105321;28;20197;-54
2021/09/29 00:15:36;;;;;;;16.83;10.03;;;16.90;1.00;;;;;;5113042;28;20225;-53
2021/09/29 00:18:02;;;;;;;15.77;11.40;;;17.00;1.00;;;;;;5114310;28;20188;-54
2021/09/29 00:20:28;;;;;;;14.80;10.67;;;17.00;1.00;;;;;;5113456;28;20529;-54
2021/09/29 00:22:53;;;;;;;12.97;8.73;;;17.10;1.00;;;;;;5111917;28;20509;-54
2021/09/29 00:25:19;;;;;;;16.57;11.57;;;17.10;1.00;;;;;;5106981;28;20205;-54
2021/09/29 00:27:45;;;;;;;17.07;11.93;;;17.10;1.00;;;;;;5113744;28;20249;-54
2021/09/29 00:30:12;;;;;;;16.03;10.87;;;17.10;1.00;;;;;;5108190;28;20521;-53
2021/09/29 00:32:41;;;;;;;13.77;10.60;;;17.10;1.00;;;;;;5094533;28;20190;-53
2021/09/29 00:35:08;;;;;;;14.60;11.07;;;17.10;1.00;;;;;;5109661;28;20868;-54
2021/09/29 00:37:34;;;;;;;15.83;11.30;;;17.10;1.00;;;;;;5112847;28;20851;-54
2021/09/29 00:39:59;;;;;;;16.37;10.40;;;17.20;1.00;;;;;;5110206;28;20456;-53
2021/09/29 00:42:25;;;;;;;18.17;11.73;;;17.20;1.00;;;;;;5112093;28;20181;-54
2021/09/29 00:44:50;;;;;;;15.33;11.30;;;17.10;1.00;;;;;;5112156;28;20699;-55
2021/09/29 00:47:17;;;;;;;18.63;11.03;;;17.10;1.00;;;;;;5109936;28;20306;-54
2021/09/29 00:49:43;;;;;;;16.23;11.33;;;17.10;1.00;;;;;;5108098;28;20177;-54
2021/09/29 00:52:08;;;;;;;14.30;10.27;;;17.10;1.00;;;;;;5112909;28;20426;-54
2021/09/29 00:54:34;;;;;;;20.53;10.60;;;17.10;1.00;;;;;;5113073;28;20197;-54
2021/09/29 00:56:59;;;;;;;21.90;10.50;;;17.10;1.00;;;;;;5109387;28;20251;-54
2021/09/29 00:59:25;;;;;;;14.83;9.60;;;17.10;1.00;;;;;;5114347;27;20228;-54
2021/09/29 01:01:52;;;;;;;16.47;10.13;;;17.10;1.00;;;;;;5107917;28;20191;-54
2021/09/29 01:04:21;;;;;;;17.00;11.00;;;17.00;1.00;;;;;;5111324;28;20527;-54
2021/09/29 01:07:03;;;;;;;15.53;10.70;;;17.00;1.00;;;;;;5108863;28;20439;-53
2021/09/29 01:09:40;;;;;;;15.60;10.70;;;17.00;1.00;;;;;;5106095;28;20963;-54
2021/09/29 01:12:23;;;;;;;15.10;10.53;;;17.10;1.00;;;;;;5108903;28;20429;-54
2021/09/29 01:14:57;;;;;;;18.10;10.57;;;17.10;1.00;;;;;;5110701;28;20762;-54
2021/09/29 01:17:22;;;;;;;19.13;11.73;;;17.10;1.00;;;;;;5111584;28;20935;-54
2021/09/29 01:20:04;;;;;;;21.27;11.87;;;17.10;1.00;;;;;;5089026;28;20435;-53
2021/09/29 01:22:41;;;;;;;15.40;10.87;;;17.10;1.00;;;;;;5112927;28;20463;-53
2021/09/29 01:25:16;;;;;;;18.63;13.10;;;17.20;1.00;;;;;;5111225;28;20939;-53
2021/09/29 01:27:44;;;;;;;18.43;11.13;;;17.20;1.00;;;;;;5111200;28;20475;-53
2021/09/29 01:30:10;;;;;;;19.83;11.00;;;17.10;1.00;;;;;;5111916;28;20484;-53
2021/09/29 01:32:35;;;;;;;13.87;10.60;;;17.20;1.00;;;;;;5110654;28;20409;-54
2021/09/29 01:35:01;;;;;;;19.07;11.50;;;17.20;1.00;;;;;;5108273;28;20434;-53
2021/09/29 01:37:28;;;;;;;17.87;11.80;;;17.20;1.00;;;;;;5101588;28;20259;-54
2021/09/29 01:39:54;;;;;;;15.03;10.00;;;17.10;1.00;;;;;;5111324;28;20263;-54
2021/09/29 01:42:20;;;;;;;14.50;10.53;;;17.20;1.00;;;;;;5110875;28;20419;-53
2021/09/29 01:44:46;;;;;;;15.73;10.40;;;17.20;1.00;;;;;;5110436;28;20423;-54
2021/09/29 01:47:11;;;;;;;18.67;11.17;;;17.20;1.00;;;;;;5110923;28;20650;-54
2021/09/29 01:49:44;;;;;;;16.47;11.23;;;17.20;1.00;;;;;;5107248;28;20181;-54
2021/09/29 01:52:11;;;;;;;17.07;11.67;;;17.30;1.00;;;;;;5109914;28;20715;-54
2021/09/29 01:54:42;;;;;;;15.83;11.60;;;17.20;1.00;;;;;;5102999;28;20457;-53
2021/09/29 01:57:09;;;;;;;15.53;11.40;;;17.20;1.00;;;;;;5109444;28;20436;-56
2021/09/29 01:59:36;;;;;;;16.63;9.33;;;17.20;1.00;;;;;;5104515;28;20501;-54
2021/09/29 02:02:02;;;;;;;15.73;9.97;;;17.20;1.00;;;;;;5101990;28;20451;-55
2021/09/29 02:04:27;;;;;;;14.73;11.10;;;17.10;1.00;;;;;;5107374;28;20417;-54
2021/09/29 02:06:54;;;;;;;13.63;10.77;;;17.10;1.00;;;;;;5104818;28;20453;-53
2021/09/29 02:09:22;;;;;;;13.63;10.33;;;17.10;1.00;;;;;;5112393;28;20233;-53
2021/09/29 02:11:49;;;;;;;13.50;10.40;;;17.10;1.00;;;;;;5107970;28;20490;-54
2021/09/29 02:14:17;;;;;;;14.40;10.40;;;17.20;1.00;;;;;;5106604;28;20426;-53
2021/09/29 02:16:44;;;;;;;18.00;11.30;;;17.10;1.00;;;;;;5109137;28;20926;-53
2021/09/29 02:19:10;;;;;;;19.57;10.83;;;17.20;1.00;;;;;;5106273;28;20450;-54
2021/09/29 02:21:38;;;;;;;14.73;11.43;;;17.20;1.00;;;;;;5108899;28;20438;-54
2021/09/29 02:24:05;;;;;;;18.70;11.23;;;17.20;1.00;;;;;;5111045;28;20180;-53
2021/09/29 02:26:31;;;;;;;14.40;11.73;;;17.20;1.00;;;;;;5103510;28;20455;-54
2021/09/29 02:28:56;;;;;;;17.63;11.97;;;17.20;1.00;;;;;;5091569;28;21026;-53
2021/09/29 02:31:22;;;;;;;15.60;12.77;;;17.20;1.00;;;;;;5101911;28;20553;-54
2021/09/29 02:33:48;;;;;;;17.37;13.40;;;17.20;1.00;;;;;;5109134;28;20184;-54
2021/09/29 02:36:14;;;;;;;17.70;13.23;;;17.20;1.00;;;;;;5111223;28;20187;-54
2021/09/29 02:38:41;;;;;;;22.67;12.97;;;17.20;1.00;;;;;;5104400;28;20247;-54
2021/09/29 02:41:07;;;;;;;16.60;13.13;;;17.20;1.00;;;;;;5110481;28;20586;-54
2021/09/29 02:43:32;;;;;;;16.97;12.87;;;17.30;1.00;;;;;;5110861;28;20574;-54
2021/09/29 02:45:59;;;;;;;24.13;14.10;;;17.30;1.00;;;;;;5110483;28;20189;-54
2021/09/29 02:48:24;;;;;;;20.20;13.30;;;17.20;1.00;;;;;;5105549;28;20201;-55
2021/09/29 02:50:50;;;;;;;22.10;13.63;;;17.20;1.00;;;;;;5104315;28;20711;-54
2021/09/29 02:53:15;;;;;;;19.03;14.00;;;17.10;1.00;;;;;;5108907;28;20531;-54
2021/09/29 02:55:41;;;;;;;20.17;15.33;;;17.20;1.00;;;;;;5100938;28;20627;-54
2021/09/29 02:58:06;;;;;;;26.37;13.97;;;17.20;1.00;;;;;;5105331;28;20200;-53
2021/09/29 03:00:32;;;;;;;24.20;16.17;;;17.10;1.00;;;;;;5104328;28;20225;-53
2021/09/29 03:02:57;;;;;;;20.90;14.90;;;17.20;1.00;;;;;;5110744;28;20190;-53
2021/09/29 03:05:23;;;;;;;23.70;15.03;;;17.20;1.00;;;;;;5108720;28;20543;-54
2021/09/29 03:07:48;;;;;;;22.07;15.27;;;17.20;1.00;;;;;;5106729;28;20242;-54
2021/09/29 03:10:14;;;;;;;24.40;15.07;;;17.20;1.00;;;;;;5111457;28;20182;-53
2021/09/29 03:12:40;;;;;;;28.63;16.50;;;17.10;1.00;;;;;;5110177;28;20174;-53
2021/09/29 03:15:06;;;;;;;26.03;17.47;;;17.20;1.00;;;;;;5099989;28;20187;-54
2021/09/29 03:17:31;;;;;;;24.63;14.93;;;17.10;1.00;;;;;;5109468;28;20661;-53
2021/09/29 03:19:57;;;;;;;26.07;17.00;;;17.10;1.00;;;;;;5104046;28;20451;-55
2021/09/29 03:22:23;;;;;;;25.30;17.53;;;17.10;1.00;;;;;;5110419;28;20222;-54
2021/09/29 03:24:48;;;;;;;25.53;17.30;;;17.20;1.00;;;;;;5105487;28;20192;-53
2021/09/29 03:27:14;;;;;;;22.03;16.70;;;17.10;1.00;;;;;;5105371;28;20185;-54
2021/09/29 03:29:39;;;;;;;28.40;17.87;;;17.10;1.00;;;;;;5107719;28;20288;-55
2021/09/29 03:32:05;;;;;;;23.60;17.00;;;17.20;1.00;;;;;;5104407;28;20188;-53
2021/09/29 03:34:31;;;;;;;25.33;17.47;;;17.20;1.00;;;;;;5109834;28;20180;-54
2021/09/29 03:36:56;;;;;;;26.07;18.80;;;17.20;1.00;;;;;;5110835;28;20627;-53
2021/09/29 03:39:22;;;;;;;24.60;16.50;;;17.20;1.00;;;;;;5109961;28;20651;-53
2021/09/29 03:41:48;;;;;;;23.83;16.63;;;17.20;1.00;;;;;;5110921;28;20547;-54
2021/09/29 03:44:13;;;;;;;24.23;17.67;;;17.20;1.00;;;;;;5103396;28;20445;-54
2021/09/29 03:46:39;;;;;;;26.77;17.40;;;17.20;1.00;;;;;;5091493;28;20212;-54
2021/09/29 03:49:05;;;;;;;22.77;16.03;;;17.20;1.00;;;;;;5109122;28;20539;-55
2021/09/29 03:51:31;;;;;;;24.87;18.60;;;17.20;1.00;;;;;;5108409;28;20221;-54
2021/09/29 03:53:57;;;;;;;29.93;18.10;;;17.20;1.00;;;;;;5106896;28;20500;-53
2021/09/29 03:56:23;;;;;;;24.53;16.90;;;17.20;1.00;;;;;;5104258;28;20446;-53
2021/09/29 03:58:48;;;;;;;28.53;18.33;;;17.10;1.00;;;;;;5098651;28;20427;-54
2021/09/29 04:01:14;;;;;;;23.20;17.63;;;17.10;1.00;;;;;;5109556;28;20187;-55
2021/09/29 04:03:40;;;;;;;23.70;18.17;;;17.10;1.00;;;;;;5109876;28;20201;-54
2021/09/29 04:06:05;;;;;;;25.70;18.13;;;17.10;1.00;;;;;;5103759;28;20183;-53
2021/09/29 04:08:31;;;;;;;25.80;15.97;;;17.10;1.00;;;;;;5105719;28;20205;-54
2021/09/29 04:10:57;;;;;;;27.13;18.20;;;17.10;1.00;;;;;;5101683;28;20171;-54
2021/09/29 04:13:24;;;;;;;25.53;18.50;;;17.70;1.00;;;;;;5107286;28;20687;-55
2021/09/29 04:15:49;;;;;;;26.47;19.17;;;17.30;1.00;;;;;;5109687;28;20441;-55
2021/09/29 04:18:15;;;;;;;23.50;18.47;;;17.30;1.00;;;;;;5110375;28;20480;-55
2021/09/29 04:20:41;;;;;;;27.20;18.93;;;17.20;1.00;;;;;;5106881;28;20187;-55
2021/09/29 04:23:08;;;;;;;21.60;17.50;;;17.20;1.00;;;;;;5101016;28;20264;-54
2021/09/29 04:25:34;;;;;;;24.13;17.37;;;17.20;1.00;;;;;;5114028;28;20441;-54
2021/09/29 04:28:00;;;;;;;24.20;18.80;;;17.20;1.00;;;;;;5111922;28;20473;-55
2021/09/29 04:30:25;;;;;;;26.40;18.20;;;17.20;1.00;;;;;;5109907;28;20500;-55
2021/09/29 04:32:51;;;;;;;25.50;18.17;;;17.20;1.00;;;;;;5108717;28;20247;-55
2021/09/29 04:35:16;;;;;;;25.30;18.33;;;17.20;1.00;;;;;;5113070;28;20179;-54
2021/09/29 04:37:42;;;;;;;23.27;17.93;;;17.10;1.00;;;;;;5115519;27;20192;-55
2021/09/29 04:40:08;;;;;;;25.70;18.90;;;17.10;1.00;;;;;;5108838;28;20192;-54
2021/09/29 04:42:34;;;;;;;27.77;17.47;;;17.10;1.00;;;;;;5111599;28;20186;-54
2021/09/29 04:45:00;;;;;;;23.47;18.10;;;17.00;1.00;;;;;;5113303;28;21189;-54
2021/09/29 04:47:25;;;;;;;24.00;16.97;;;17.10;1.00;;;;;;5110983;28;20205;-54
2021/09/29 04:49:51;;;;;;;24.63;17.37;;;17.10;1.00;;;;;;5113532;28;20242;-53
2021/09/29 04:52:16;;;;;;;22.50;17.27;;;17.10;1.00;;;;;;5108938;28;20649;-54
2021/09/29 04:54:43;;;;;;;23.63;17.07;;;17.00;1.00;;;;;;5108468;28;20189;-55
2021/09/29 04:57:09;;;;;;;24.90;16.63;;;17.00;1.00;;;;;;5112843;28;20615;-54
2021/09/29 04:59:35;;;;;;;24.67;18.23;;;17.10;1.00;;;;;;5109700;28;20454;-53
2021/09/29 05:02:09;;;;;;;21.13;17.87;;;17.10;1.00;;;;;;5105631;28;20931;-54
2021/09/29 05:04:35;;;;;;;27.10;17.40;;;17.10;1.00;;;;;;5111701;28;22152;-54
2021/09/29 05:07:00;;;;;;;23.27;17.93;;;17.10;1.00;;;;;;5109100;28;20411;-54
2021/09/29 05:09:26;;;;;;;26.80;18.40;;;17.10;1.00;;;;;;5113583;28;20219;-54
2021/09/29 05:12:19;;;;;;;27.13;18.27;;;17.10;1.00;;;;;;5109505;28;20213;-54
2021/09/29 05:14:45;;;;;;;22.50;15.33;;;17.20;1.00;;;;;;5109620;28;20180;-54
2021/09/29 05:17:10;;;;;;;24.33;18.10;;;17.10;1.00;;;;;;5097546;28;20413;-54
2021/09/29 05:19:36;;;;;;;25.20;16.30;;;17.20;1.00;;;;;;5107444;28;20185;-55
2021/09/29 05:22:02;;;;;;;22.53;16.97;;;17.10;1.00;;;;;;5106820;28;20195;-55
2021/09/29 05:24:28;;;;;;;22.80;16.90;;;17.10;1.00;;;;;;5112494;28;20538;-54
2021/09/29 05:26:53;;;;;;;25.10;18.00;;;17.10;1.00;;;;;;5111658;28;20441;-54
2021/09/29 05:29:21;;;;;;;21.47;16.60;;;17.10;1.00;;;;;;5113020;28;20202;-55
2021/09/29 05:31:47;;;;;;;19.83;16.30;;;17.10;1.00;;;;;;5105597;28;20185;-54
2021/09/29 05:34:13;;;;;;;20.93;16.43;;;17.10;1.00;;;;;;5109558;28;20468;-54
2021/09/29 05:36:40;;;;;;;20.63;16.27;;;17.00;1.00;;;;;;5106448;28;20188;-56
2021/09/29 05:39:07;;;;;;;26.50;18.80;;;17.10;1.00;;;;;;5111566;28;20612;-54
2021/09/29 05:41:32;;;;;;;20.97;16.97;;;17.10;1.00;;;;;;5108808;28;20465;-55
2021/09/29 05:43:58;;;;;;;25.80;17.13;;;17.00;1.00;;;;;;5112874;28;20899;-55
2021/09/29 05:46:23;;;;;;;37.83;19.03;;;17.00;1.00;;;;;;5108520;28;20225;-55
2021/09/29 05:48:49;;;;;;;26.20;18.43;;;17.00;1.00;;;;;;5108943;28;20255;-54
2021/09/29 05:51:14;;;;;;;23.83;19.50;;;17.10;1.00;;;;;;5111473;28;20255;-54
2021/09/29 05:53:40;;;;;;;23.20;18.27;;;17.20;1.00;;;;;;5109787;28;20189;-59
2021/09/29 05:56:07;;;;;;;26.27;18.47;;;17.30;1.00;;;;;;5111870;28;20256;-54
2021/09/29 05:58:32;;;;;;;24.07;18.67;;;17.30;1.00;;;;;;5105549;28;20298;-54
2021/09/29 06:00:58;;;;;;;26.13;18.33;;;17.20;1.00;;;;;;5110127;28;20484;-54
2021/09/29 06:03:23;;;;;;;25.60;18.03;;;17.30;1.00;;;;;;5111806;28;20196;-55
2021/09/29 06:05:49;;;;;;;26.50;18.47;;;17.30;1.00;;;;;;5111064;28;20193;-55
2021/09/29 06:08:14;;;;;;;25.33;19.00;;;17.50;1.00;;;;;;5109424;28;20207;-54
2021/09/29 06:10:40;;;;;;;24.63;19.07;;;17.50;1.00;;;;;;5112203;28;20187;-54
2021/09/29 06:13:05;;;;;;;24.50;17.60;;;17.60;1.00;;;;;;5109760;28;20667;-56
2021/09/29 06:15:33;;;;;;;22.20;17.97;;;17.60;1.00;;;;;;5094583;28;20179;-54
2021/09/29 06:18:02;;;;;;;22.23;17.37;;;17.60;1.00;;;;;;5111354;28;20181;-54
2021/09/29 06:20:32;;;;;;;24.27;18.57;;;17.60;1.00;;;;;;5087877;28;20801;-54
2021/09/29 06:22:58;;;;;;;21.87;17.73;;;17.70;1.00;;;;;;5099986;28;20430;-54
2021/09/29 06:25:23;;;;;;;22.43;18.30;;;17.60;1.00;;;;;;5111113;28;20488;-56
2021/09/29 06:27:50;;;;;;;26.57;18.70;;;17.60;1.00;;;;;;5111498;28;20958;-54
2021/09/29 06:30:16;;;;;;;24.63;19.03;;;17.60;1.00;;;;;;5111566;28;20583;-54
2021/09/29 06:32:41;;;;;;;21.23;16.70;;;17.60;1.00;;;;;;5109829;28;20433;-55
2021/09/29 06:35:07;;;;;;;24.40;19.10;;;17.60;1.00;;;;;;5104291;28;20222;-54
2021/09/29 06:37:39;;;;;;;24.60;17.90;;;17.70;1.00;;;;;;5105861;28;20186;-54
2021/09/29 06:40:06;;;;;;;21.43;17.30;;;17.80;1.00;;;;;;5111336;28;20216;-54
2021/09/29 06:42:32;;;;;;;20.20;18.00;;;17.80;1.00;;;;;;5111412;28;20438;-53
2021/09/29 06:44:58;;;;;;;27.53;19.83;;;17.90;1.00;;;;;;5110062;28;20837;-53
2021/09/29 06:47:23;;;;;;;21.27;18.13;;;17.90;1.00;;;;;;5109446;28;20480;-54
2021/09/29 06:49:49;;;;;;;24.50;18.33;;;17.90;1.00;;;;;;5099225;28;20320;-54
2021/09/29 06:52:14;;;;;;;25.27;20.40;;;17.90;1.00;;;;;;5108710;28;20185;-54
2021/09/29 06:54:40;;;;;;;21.37;18.03;;;17.90;1.00;;;;;;5109624;28;20184;-54
2021/09/29 06:57:07;;;;;;;23.90;19.23;;;17.80;1.00;;;;;;5108647;28;20187;-54
2021/09/29 06:59:33;;;;;;;22.57;19.10;;;17.90;1.00;;;;;;5111315;28;20219;-54
2021/09/29 07:01:59;;;;;;;23.03;19.60;;;17.90;1.00;;;;;;5111716;27;20451;-53
2021/09/29 07:04:24;;;;;;;25.10;18.60;;;18.00;1.00;;;;;;5111089;28;20424;-54
2021/09/29 07:06:50;;;;;;;22.90;18.73;;;18.00;1.00;;;;;;5111322;28;20184;-53
2021/09/29 07:09:15;;;;;;;24.27;21.73;;;18.10;1.00;;;;;;5111274;28;20372;-54
2021/09/29 07:11:41;;;;;;;22.43;18.73;;;18.10;1.00;;;;;;5110922;28;20650;-53
2021/09/29 07:14:07;;;;;;;22.00;18.60;;;18.00;1.00;;;;;;5107338;28;20267;-53
2021/09/29 07:16:32;;;;;;;24.07;19.40;;;18.20;1.00;;;;;;5110869;28;20216;-54
2021/09/29 07:19:02;;;;;;;22.20;18.67;;;18.20;1.00;;;;;;5104303;28;20196;-54
2021/09/29 07:21:28;;;;;;;24.80;20.50;;;18.30;1.00;;;;;;5110669;28;20253;-54
2021/09/29 07:23:53;;;;;;;23.80;19.20;;;18.30;1.00;;;;;;5108774;28;20529;-55
2021/09/29 07:26:19;;;;;;;25.20;20.37;;;18.20;1.00;;;;;;5107967;28;20238;-54
2021/09/29 07:28:44;;;;;;;26.37;20.47;;;18.30;1.00;;;;;;5110884;28;20204;-54
2021/09/29 07:31:10;;;;;;;23.10;19.57;;;18.30;1.00;;;;;;5108301;28;20264;-54
2021/09/29 07:33:36;;;;;;;24.63;20.03;;;18.40;1.00;;;;;;5107016;28;20273;-55
2021/09/29 07:36:02;;;;;;;26.13;20.50;;;18.40;1.00;;;;;;5109282;28;20171;-53
2021/09/29 07:38:28;;;;;;;25.30;22.00;;;18.40;1.00;;;;;;5110708;28;20417;-53
2021/09/29 07:40:54;;;;;;;26.33;21.20;;;18.50;1.00;;;;;;5110161;28;20843;-52
2021/09/29 07:43:20;;;;;;;23.03;20.67;;;18.60;1.00;;;;;;5108092;28;20444;-54
2021/09/29 07:45:45;;;;;;;22.87;20.00;;;18.50;1.00;;;;;;5109914;28;20447;-54
2021/09/29 07:48:11;;;;;;;26.43;22.10;;;18.60;1.00;;;;;;5093860;28;20257;-55
2021/09/29 07:50:36;;;;;;;27.30;21.20;;;18.50;1.00;;;;;;5108863;28;20219;-54
2021/09/29 07:53:02;;;;;;;28.37;22.87;;;18.50;1.00;;;;;;5110671;28;20697;-54
2021/09/29 07:55:28;;;;;;;26.47;20.57;;;18.60;1.00;;;;;;5108848;28;20189;-55
2021/09/29 07:57:53;;;;;;;26.00;22.23;;;18.50;1.00;;;;;;5113502;28;20180;-54
2021/09/29 08:00:19;;;;;;;26.20;21.50;;;18.40;1.00;;;;;;5114061;28;20591;-54
2021/09/29 08:02:45;;;;;;;29.40;23.20;;;18.50;1.00;;;;;;5113045;28;20715;-55
2021/09/29 08:05:13;;;;;;;28.47;22.37;;;18.60;1.00;;;;;;5115160;28;20410;-55
2021/09/29 08:07:38;;;;;;;29.93;22.03;;;18.80;1.00;;;;;;5119104;27;20511;-54
2021/09/29 08:10:06;;;;;;;26.37;20.37;;;18.80;1.00;;;;;;5114433;28;20424;-55
2021/09/29 08:12:31;;;;;;;31.70;22.27;;;18.80;1.00;;;;;;5114933;28;20181;-54
2021/09/29 08:14:57;;;;;;;29.87;23.47;;;18.80;1.00;;;;;;5114563;28;20425;-54
2021/09/29 08:17:22;;;;;;;26.63;22.70;;;18.90;1.00;;;;;;5114705;28;20191;-54
2021/09/29 08:19:48;;;;;;;24.87;21.23;;;18.90;1.00;;;;;;5114370;28;20188;-54
2021/09/29 08:22:14;;;;;;;31.03;23.73;;;19.00;1.00;;;;;;5114440;28;20192;-54
2021/09/29 08:27:29;;;;;;;26.63;22.67;;;19.30;1.00;;;;;;5113129;28;20223;-55
2021/09/29 08:30:13;;;;;;;27.27;22.80;;;19.50;1.00;;;;;;5114167;28;20438;-54
2021/09/29 08:35:12;;;;;;;31.00;22.67;;;19.40;1.00;;;;;;5114245;28;20406;-54
2021/09/29 08:45:27;;;;;;;30.10;23.40;;;19.50;1.00;;;;;;5115053;28;20652;-54
2021/09/29 08:51:14;;;;;;;33.47;25.10;;;19.60;1.00;;;;;;5089627;28;20445;-55
2021/09/29 09:14:46;;;;;;;28.47;23.33;;;19.60;1.00;;;;;;5114247;28;20443;-54
2021/09/29 09:15:48;;;;;;;29.40;25.00;;;19.20;1.00;;;;;;5113797;28;20436;-54
2021/09/29 09:18:17;;;;;;;30.60;26.10;;;19.20;1.00;;;;;;5113454;27;20422;-54
2021/09/29 09:20:52;;;;;;;28.87;24.27;;;19.10;1.00;;;;;;5113640;28;20435;-54
2021/09/29 09:23:17;;;;;;;31.97;25.07;;;19.20;1.00;;;;;;5112698;28;20412;-54
2021/09/29 09:25:44;;;;;;;33.43;27.67;;;19.20;1.00;;;;;;5113528;28;20548;-54
2021/09/29 09:28:27;;;;;;;32.03;26.27;;;19.20;1.00;;;;;;5113211;28;20219;-54
2021/09/29 09:30:57;;;;;;;30.57;26.57;;;19.20;1.00;;;;;;5113620;28;20522;-54
2021/09/29 09:33:25;;;;;;;32.93;26.90;;;19.40;1.00;;;;;;5113059;28;20439;-54
2021/09/29 09:35:50;;;;;;;32.37;27.43;;;19.60;1.00;;;;;;5113298;28;20403;-55
2021/09/29 09:38:21;;;;;;;33.10;25.80;;;19.60;1.00;;;;;;5103324;28;20406;-54
2021/09/29 09:41:00;;;;;;;29.77;25.57;;;19.70;1.00;;;;;;5103773;28;20201;-55
2021/09/29 09:43:29;;;;;;;34.67;26.73;;;19.60;1.00;;;;;;5113062;27;20517;-55
2021/09/29 09:45:55;;;;;;;28.67;25.00;;;19.60;1.00;;;;;;5113018;28;20410;-54
2021/09/29 09:48:24;;;;;;;32.80;26.97;;;19.50;1.00;;;;;;5112857;28;20966;-56
2021/09/29 09:50:53;;;;;;;26.87;23.83;;;19.50;1.00;;;;;;5112665;28;20438;-55
2021/09/29 09:53:19;;;;;;;31.83;25.67;;;19.50;1.00;;;;;;5110999;28;20799;-55
2021/09/29 09:55:44;;;;;;;34.03;27.30;;;19.60;1.00;;;;;;5112874;28;20406;-54
2021/09/29 09:58:10;;;;;;;30.13;24.63;;;19.70;1.00;;;;;;5112760;28;20257;-54
2021/09/29 10:00:37;;;;;;;29.03;24.90;;;19.80;1.00;;;;;;5112498;28;20190;-54
2021/09/29 10:03:02;;;;;;;33.37;25.27;;;19.70;1.00;;;;;;5112369;28;20439;-54
2021/09/29 10:05:30;;;;;;;29.90;24.73;;;19.80;1.00;;;;;;5112431;28;20411;-54
2021/09/29 10:07:57;;;;;;;26.93;23.23;;;19.90;1.00;;;;;;5112037;28;20807;-55
2021/09/29 10:13:10;;;;;;;28.33;24.17;;;20.00;1.00;;;;;;5112494;28;20436;-54
2021/09/29 10:27:14;;;;;;;28.50;24.30;;;20.50;1.00;;;;;;5112368;28;20410;-55
2021/09/29 10:29:58;;;;;;;28.80;23.63;;;20.50;1.00;;;;;;5111717;28;20469;-54
2021/09/29 10:32:26;;;;;;;25.10;22.23;;;20.60;1.00;;;;;;5108834;28;20420;-55
2021/09/29 10:36:01;;;;;;;21.43;18.73;;;20.60;1.00;;;;;;5126105;27;20552;-55
2021/09/29 10:52:04;;;;;;;16.50;13.57;;;21.20;1.00;;;;;;5111511;28;20813;-54
2021/09/29 11:28:11;;;;;;;4.10;3.70;;;19.00;1.00;;;;;;5111603;28;20466;-54
2021/09/29 11:30:56;;;;;;;4.50;4.10;;;19.20;1.00;;;;;;5111262;28;20996;-54
2021/09/29 12:07:56;;;;;;;4.27;3.90;;;20.00;1.00;;;;;;5055399;28;20462;-55
2021/09/29 12:12:28;;;;;;;6.33;4.30;;;20.60;1.00;;;;;;5114756;28;20801;-54
2021/09/29 12:14:57;;;;;;;4.83;4.30;;;20.90;1.00;;;;;;5114879;28;20459;-54
2021/09/29 12:17:26;;;;;;;6.23;5.47;;;21.10;1.00;;;;;;5114480;28;20767;-55
2021/09/29 12:19:58;;;;;;;4.73;3.90;;;21.10;1.00;;;;;;5114847;28;20438;-54
2021/09/29 12:22:26;;;;;;;5.20;4.63;;;21.30;1.00;;;;;;5114614;28;20431;-55
2021/09/29 12:25:06;;;;;;;5.03;4.53;;;21.60;1.00;;;;;;5114718;28;20535;-55
2021/09/29 12:30:33;;;;;;;5.20;4.70;;;21.60;1.00;;;;;;5114554;28;20423;-54
2021/09/29 12:33:10;;;;;;;7.57;5.13;;;21.50;1.00;;;;;;5113947;28;20420;-56
2021/09/29 12:38:02;;;;;;;5.23;4.60;;;21.10;1.00;;;;;;5114453;28;20807;-55
2021/09/29 12:40:31;;;;;;;5.43;4.90;;;20.90;1.00;;;;;;5114089;28;20186;-55
2021/09/29 12:43:06;;;;;;;5.63;4.80;;;21.00;1.00;;;;;;5113770;28;20419;-56
2021/09/29 12:45:36;;;;;;;7.83;4.50;;;21.10;1.00;;;;;;5113135;28;20409;-55
2021/09/29 12:48:04;;;;;;;6.00;5.50;;;21.30;1.00;;;;;;5113319;28;20560;-54
2021/09/29 12:50:52;;;;;;;4.83;4.43;;;21.30;1.00;;;;;;5099225;28;20461;-54
2021/09/29 12:53:27;;;;;;;7.10;4.67;;;21.30;1.00;;;;;;5091715;28;20408;-56
2021/09/29 12:56:36;;;;;;;6.60;4.30;;;21.30;1.00;;;;;;5093520;28;20921;-54
2021/09/29 12:58:43;;;;;;;4.70;4.30;;;21.30;1.00;;;;;;5090344;28;20941;-55
2021/09/29 13:01:08;;;;;;;4.97;4.57;;;21.50;1.00;;;;;;5091985;28;20553;-55
2021/09/29 13:03:34;;;;;;;7.60;4.87;;;21.40;1.00;;;;;;5093379;28;20999;-55
2021/09/29 13:06:00;;;;;;;4.60;3.80;;;21.40;1.00;;;;;;5093287;28;20194;-54
2021/09/29 13:08:27;;;;;;;4.73;4.23;;;21.60;1.00;;;;;;5092255;28;20476;-54
2021/09/29 13:10:53;;;;;;;4.63;4.23;;;21.80;1.00;;;;;;5091938;28;20272;-54
2021/09/29 13:13:18;;;;;;;5.10;3.90;;;21.70;1.00;;;;;;5092849;28;20435;-55
2021/09/29 13:15:46;;;;;;;3.97;3.57;;;21.70;1.00;;;;;;5086388;28;20445;-55
2021/09/29 13:21:12;;;;;;;7.20;3.80;;;21.80;1.00;;;;;;5088195;28;20441;-55
2021/09/29 13:23:51;;;;;;;3.80;3.50;;;21.90;1.00;;;;;;5088471;28;20490;-55
2021/09/29 13:36:57;;;;;;;5.67;3.50;;;23.50;1.00;;;;;;5092748;28;20477;-54
2021/09/29 13:39:23;;;;;;;3.30;2.87;;;23.40;1.00;;;;;;5087518;28;20430;-54
2021/09/29 13:41:52;;;;;;;6.00;2.80;;;23.30;1.00;;;;;;5089846;28;20272;-56
2021/09/29 13:44:17;;;;;;;3.73;2.97;;;23.20;1.00;;;;;;5092306;28;20511;-55
2021/09/29 13:46:43;;;;;;;2.53;2.33;;;23.20;1.00;;;;;;5092567;28;20520;-54
2021/09/29 13:49:09;;;;;;;2.87;2.00;;;23.00;1.00;;;;;;5091142;28;20671;-55
2021/09/29 13:51:36;;;;;;;4.30;1.93;;;22.70;1.00;;;;;;5102901;28;20227;-55
2021/09/29 13:54:07;;;;;;;2.20;2.00;;;22.10;1.00;;;;;;5106991;28;20282;-54
2021/09/29 13:56:58;;;;;;;2.10;1.80;;;21.80;1.00;;;;;;5108042;28;20461;-54
2021/09/29 13:59:27;;;;;;;3.00;1.80;;;21.70;1.00;;;;;;5111403;28;20437;-54
2021/09/29 14:29:03;;;;;;;2.10;1.73;;;21.20;1.00;;;;;;5108607;28;20490;-55
2021/09/29 14:34:14;;;;;;;3.40;2.37;;;21.00;1.00;;;;;;5110048;28;20491;-54
2021/09/29 14:36:40;;;;;;;1.83;1.70;;;21.10;1.00;;;;;;5109920;28;20443;-54
2021/09/29 14:39:06;;;;;;;2.73;1.80;;;21.10;1.00;;;;;;5101224;28;20437;-54
2021/09/29 14:41:31;;;;;;;1.70;1.60;;;21.10;1.00;;;;;;5108127;28;20183;-54
2021/09/29 14:43:57;;;;;;;3.13;1.83;;;21.20;1.00;;;;;;5111545;28;20220;-54
2021/09/29 14:46:22;;;;;;;2.10;1.70;;;21.10;1.00;;;;;;5111755;28;20729;-55
2021/09/29 14:48:48;;;;;;;2.00;1.50;;;21.10;1.00;;;;;;5099000;28;20210;-54
2021/09/29 14:51:14;;;;;;;3.77;1.90;;;21.10;1.00;;;;;;5101068;28;20254;-56
2021/09/29 14:53:40;;;;;;;2.17;1.33;;;21.10;1.00;;;;;;5107930;28;20606;-55
2021/09/29 14:56:08;;;;;;;2.20;1.60;;;21.20;1.00;;;;;;5112538;28;20527;-55
2021/09/29 14:58:35;;;;;;;1.50;1.40;;;21.10;1.00;;;;;;5112504;28;20908;-54
2021/09/29 15:01:01;;;;;;;5.73;2.40;;;21.60;1.00;;;;;;5110176;28;21020;-55
2021/09/29 15:03:27;;;;;;;4.47;1.70;;;22.40;1.00;;;;;;5111341;28;20432;-54
2021/09/29 15:05:54;;;;;;;2.33;2.13;;;23.20;1.00;;;;;;5110971;28;20528;-54
2021/09/29 15:08:20;;;;;;;1.50;1.40;;;23.20;1.00;;;;;;5099425;28;20198;-55
2021/09/29 15:10:45;;;;;;;1.77;1.43;;;23.20;1.00;;;;;;5102523;28;20981;-55
2021/09/29 15:13:14;;;;;;;3.03;1.63;;;23.30;1.00;;;;;;5111399;28;20438;-53
2021/09/29 15:15:58;;;;;;;2.80;2.33;;;23.40;1.00;;;;;;5111745;28;20720;-54
2021/09/29 15:18:30;;;;;;;2.43;1.37;;;23.70;1.00;;;;;;5111524;28;20525;-54
2021/09/29 15:21:13;;;;;;;1.70;1.30;;;24.10;1.00;;;;;;5104879;28;20405;-55
2021/09/29 15:23:58;;;;;;;1.90;1.50;;;24.40;1.00;;;;;;5109220;28;20423;-56
2021/09/29 15:32:04;;;;;;;1.90;1.07;;;24.70;1.00;;;;;;5110705;28;20505;-55
2021/09/29 15:48:14;;;;;;;4.70;1.57;;;24.50;1.00;;;;;;5104748;28;20538;-56
2021/09/29 15:50:58;;;;;;;2.10;1.50;;;24.90;1.00;;;;;;5110276;28;20470;-55
2021/09/29 15:56:23;;;;;;;1.93;1.37;;;25.50;1.00;;;;;;5107874;28;20443;-55
2021/09/29 15:59:01;;;;;;;4.20;1.80;;;25.30;1.00;;;;;;5109596;28;20436;-56
2021/09/29 16:01:33;;;;;;;3.40;1.77;;;24.60;1.00;;;;;;5110701;28;20809;-55
2021/09/29 16:04:18;;;;;;;3.20;1.33;;;23.70;1.00;;;;;;5111095;28;20433;-54
2021/09/29 16:14:55;;;;;;;1.87;1.60;;;21.40;1.00;;;;;;5110995;28;20498;-54
2021/09/29 16:17:43;;;;;;;4.17;2.60;;;21.10;1.00;;;;;;5111369;28;20413;-55